sensor_id;sensor_type;location;lat;lon;timestamp;P1;durP1;ratioP1;P2;durP2;ratioP2
62990;SDS011;49084;48.204;16.202;2022-08-30T00:00:20;18.55;;;10.82;;
62990;SDS011;49084;48.204;16.202;2022-08-30T00:03:04;17.45;;;11.10;;
62990;SDS011;49084;48.204;16.202;2022-08-30T00:05:31;16.38;;;11.82;;
62990;SDS011;49084;48.204;16.202;2022-08-30T00:07:58;16.52;;;11.18;;
62990;SDS011;49084;48.204;16.202;2022-08-30T00:10:25;14.57;;;10.73;;
62990;SDS011;49084;48.204;16.202;2022-08-30T00:12:52;17.52;;;11.07;;
62990;SDS011;49084;48.204;16.202;2022-08-30T00:15:18;14.25;;;10.60;;
62990;SDS011;49084;48.204;16.202;2022-08-30T00:17:44;14.90;;;11.63;;
62990;SDS011;49084;48.204;16.202;2022-08-30T00:20:11;19.55;;;11.98;;
62990;SDS011;49084;48.204;16.202;2022-08-30T00:25:05;13.32;;;11.30;;
62990;SDS011;49084;48.204;16.202;2022-08-30T00:27:31;14.43;;;11.00;;
62990;SDS011;49084;48.204;16.202;2022-08-30T00:29:58;13.75;;;11.57;;
62990;SDS011;49084;48.204;16.202;2022-08-30T00:32:23;13.52;;;10.57;;
62990;SDS011;49084;48.204;16.202;2022-08-30T00:34:50;15.98;;;11.82;;
62990;SDS011;49084;48.204;16.202;2022-08-30T00:37:17;14.98;;;11.25;;
62990;SDS011;49084;48.204;16.202;2022-08-30T00:39:43;16.23;;;12.00;;
62990;SDS011;49084;48.204;16.202;2022-08-30T00:42:10;14.98;;;11.52;;
62990;SDS011;49084;48.204;16.202;2022-08-30T00:44:36;15.38;;;11.20;;
62990;SDS011;49084;48.204;16.202;2022-08-30T00:47:03;16.42;;;11.55;;
62990;SDS011;49084;48.204;16.202;2022-08-30T00:49:29;19.35;;;11.63;;
62990;SDS011;49084;48.204;16.202;2022-08-30T00:51:56;16.95;;;11.27;;
62990;SDS011;49084;48.204;16.202;2022-08-30T00:54:22;17.92;;;11.07;;
62990;SDS011;49084;48.204;16.202;2022-08-30T00:56:50;16.73;;;11.38;;
62990;SDS011;49084;48.204;16.202;2022-08-30T00:59:16;17.00;;;11.50;;
62990;SDS011;49084;48.204;16.202;2022-08-30T01:01:43;16.50;;;11.25;;
62990;SDS011;49084;48.204;16.202;2022-08-30T01:04:10;15.27;;;10.60;;
62990;SDS011;49084;48.204;16.202;2022-08-30T01:06:36;13.18;;;11.32;;
62990;SDS011;49084;48.204;16.202;2022-08-30T01:09:04;16.13;;;10.40;;
62990;SDS011;49084;48.204;16.202;2022-08-30T01:11:31;13.73;;;10.10;;
62990;SDS011;49084;48.204;16.202;2022-08-30T01:13:58;16.02;;;10.90;;
62990;SDS011;49084;48.204;16.202;2022-08-30T01:16:26;16.48;;;10.60;;
62990;SDS011;49084;48.204;16.202;2022-08-30T01:18:55;17.00;;;11.23;;
62990;SDS011;49084;48.204;16.202;2022-08-30T01:23:50;14.33;;;9.97;;
62990;SDS011;49084;48.204;16.202;2022-08-30T01:28:46;14.45;;;10.90;;
62990;SDS011;49084;48.204;16.202;2022-08-30T01:31:14;13.10;;;10.63;;
62990;SDS011;49084;48.204;16.202;2022-08-30T01:33:40;15.65;;;11.60;;
62990;SDS011;49084;48.204;16.202;2022-08-30T01:36:09;16.90;;;11.07;;
62990;SDS011;49084;48.204;16.202;2022-08-30T01:38:39;14.35;;;10.57;;
62990;SDS011;49084;48.204;16.202;2022-08-30T01:41:13;18.23;;;11.68;;
62990;SDS011;49084;48.204;16.202;2022-08-30T01:43:42;16.35;;;11.80;;
62990;SDS011;49084;48.204;16.202;2022-08-30T01:46:08;15.98;;;11.05;;
62990;SDS011;49084;48.204;16.202;2022-08-30T01:48:36;18.67;;;11.20;;
62990;SDS011;49084;48.204;16.202;2022-08-30T01:51:02;16.45;;;10.43;;
62990;SDS011;49084;48.204;16.202;2022-08-30T01:53:28;14.93;;;10.95;;
62990;SDS011;49084;48.204;16.202;2022-08-30T01:55:54;15.85;;;11.48;;
62990;SDS011;49084;48.204;16.202;2022-08-30T01:58:20;12.48;;;10.82;;
62990;SDS011;49084;48.204;16.202;2022-08-30T02:00:47;13.77;;;10.40;;
62990;SDS011;49084;48.204;16.202;2022-08-30T02:03:13;15.40;;;10.60;;
62990;SDS011;49084;48.204;16.202;2022-08-30T02:05:38;11.98;;;9.70;;
62990;SDS011;49084;48.204;16.202;2022-08-30T02:08:04;13.05;;;9.93;;
62990;SDS011;49084;48.204;16.202;2022-08-30T02:10:30;13.63;;;10.85;;
62990;SDS011;49084;48.204;16.202;2022-08-30T02:12:55;17.70;;;10.75;;
62990;SDS011;49084;48.204;16.202;2022-08-30T02:15:21;11.90;;;10.40;;
62990;SDS011;49084;48.204;16.202;2022-08-30T02:17:47;12.63;;;10.13;;
62990;SDS011;49084;48.204;16.202;2022-08-30T02:20:12;17.95;;;11.23;;
62990;SDS011;49084;48.204;16.202;2022-08-30T02:22:38;14.95;;;10.93;;
62990;SDS011;49084;48.204;16.202;2022-08-30T02:25:05;14.60;;;10.82;;
62990;SDS011;49084;48.204;16.202;2022-08-30T02:27:32;16.20;;;11.57;;
62990;SDS011;49084;48.204;16.202;2022-08-30T02:29:58;15.55;;;10.48;;
62990;SDS011;49084;48.204;16.202;2022-08-30T02:32:24;11.30;;;9.75;;
62990;SDS011;49084;48.204;16.202;2022-08-30T02:34:50;13.98;;;10.02;;
62990;SDS011;49084;48.204;16.202;2022-08-30T02:37:15;15.02;;;9.88;;
62990;SDS011;49084;48.204;16.202;2022-08-30T02:39:41;11.38;;;10.15;;
62990;SDS011;49084;48.204;16.202;2022-08-30T02:42:06;13.35;;;10.52;;
62990;SDS011;49084;48.204;16.202;2022-08-30T02:44:32;14.27;;;11.50;;
62990;SDS011;49084;48.204;16.202;2022-08-30T02:46:58;20.98;;;10.52;;
62990;SDS011;49084;48.204;16.202;2022-08-30T02:49:23;15.70;;;10.60;;
62990;SDS011;49084;48.204;16.202;2022-08-30T02:51:49;14.80;;;10.85;;
62990;SDS011;49084;48.204;16.202;2022-08-30T02:54:15;14.25;;;10.43;;
62990;SDS011;49084;48.204;16.202;2022-08-30T02:56:44;11.18;;;9.98;;
62990;SDS011;49084;48.204;16.202;2022-08-30T02:59:11;13.93;;;10.10;;
62990;SDS011;49084;48.204;16.202;2022-08-30T03:01:38;13.32;;;10.25;;
62990;SDS011;49084;48.204;16.202;2022-08-30T03:04:03;17.27;;;10.65;;
62990;SDS011;49084;48.204;16.202;2022-08-30T03:06:30;15.93;;;10.90;;
62990;SDS011;49084;48.204;16.202;2022-08-30T03:08:56;14.20;;;10.90;;
62990;SDS011;49084;48.204;16.202;2022-08-30T03:11:21;16.45;;;11.23;;
62990;SDS011;49084;48.204;16.202;2022-08-30T03:13:47;14.95;;;10.85;;
62990;SDS011;49084;48.204;16.202;2022-08-30T03:16:13;14.85;;;11.20;;
62990;SDS011;49084;48.204;16.202;2022-08-30T03:18:39;14.27;;;9.80;;
62990;SDS011;49084;48.204;16.202;2022-08-30T03:21:13;14.27;;;10.35;;
62990;SDS011;49084;48.204;16.202;2022-08-30T03:23:40;13.73;;;10.73;;
62990;SDS011;49084;48.204;16.202;2022-08-30T03:26:07;18.33;;;10.93;;
62990;SDS011;49084;48.204;16.202;2022-08-30T03:28:34;19.42;;;11.20;;
62990;SDS011;49084;48.204;16.202;2022-08-30T03:31:00;17.60;;;11.85;;
62990;SDS011;49084;48.204;16.202;2022-08-30T03:33:26;17.15;;;11.52;;
62990;SDS011;49084;48.204;16.202;2022-08-30T03:35:52;15.20;;;11.07;;
62990;SDS011;49084;48.204;16.202;2022-08-30T03:38:17;14.23;;;10.43;;
62990;SDS011;49084;48.204;16.202;2022-08-30T03:40:43;15.82;;;11.30;;
62990;SDS011;49084;48.204;16.202;2022-08-30T03:43:08;14.07;;;10.90;;
62990;SDS011;49084;48.204;16.202;2022-08-30T03:45:34;16.40;;;12.75;;
62990;SDS011;49084;48.204;16.202;2022-08-30T03:48:00;13.65;;;11.45;;
62990;SDS011;49084;48.204;16.202;2022-08-30T03:50:27;15.68;;;12.00;;
62990;SDS011;49084;48.204;16.202;2022-08-30T03:52:54;15.93;;;11.65;;
62990;SDS011;49084;48.204;16.202;2022-08-30T03:55:20;16.05;;;11.35;;
62990;SDS011;49084;48.204;16.202;2022-08-30T03:57:46;14.48;;;11.20;;
62990;SDS011;49084;48.204;16.202;2022-08-30T04:00:12;15.73;;;11.50;;
62990;SDS011;49084;48.204;16.202;2022-08-30T04:02:39;14.45;;;10.80;;
62990;SDS011;49084;48.204;16.202;2022-08-30T04:05:06;15.43;;;11.25;;
62990;SDS011;49084;48.204;16.202;2022-08-30T04:07:33;22.25;;;12.30;;
62990;SDS011;49084;48.204;16.202;2022-08-30T04:09:59;17.27;;;11.88;;
62990;SDS011;49084;48.204;16.202;2022-08-30T04:12:25;15.80;;;11.60;;
62990;SDS011;49084;48.204;16.202;2022-08-30T04:14:51;14.73;;;10.10;;
62990;SDS011;49084;48.204;16.202;2022-08-30T04:17:17;14.40;;;10.20;;
62990;SDS011;49084;48.204;16.202;2022-08-30T04:19:43;16.63;;;10.55;;
62990;SDS011;49084;48.204;16.202;2022-08-30T04:22:08;15.77;;;10.30;;
62990;SDS011;49084;48.204;16.202;2022-08-30T04:24:34;18.02;;;10.90;;
62990;SDS011;49084;48.204;16.202;2022-08-30T04:27:02;17.63;;;12.05;;
62990;SDS011;49084;48.204;16.202;2022-08-30T04:29:28;18.23;;;11.55;;
62990;SDS011;49084;48.204;16.202;2022-08-30T04:31:54;15.45;;;11.02;;
62990;SDS011;49084;48.204;16.202;2022-08-30T04:34:20;16.00;;;10.65;;
62990;SDS011;49084;48.204;16.202;2022-08-30T04:36:47;17.50;;;11.48;;
62990;SDS011;49084;48.204;16.202;2022-08-30T04:39:13;16.85;;;11.05;;
62990;SDS011;49084;48.204;16.202;2022-08-30T04:41:39;14.15;;;11.68;;
62990;SDS011;49084;48.204;16.202;2022-08-30T04:44:04;17.27;;;11.05;;
62990;SDS011;49084;48.204;16.202;2022-08-30T04:46:32;18.90;;;12.43;;
62990;SDS011;49084;48.204;16.202;2022-08-30T04:48:59;18.67;;;10.98;;
62990;SDS011;49084;48.204;16.202;2022-08-30T04:51:25;16.95;;;10.63;;
62990;SDS011;49084;48.204;16.202;2022-08-30T04:53:51;17.27;;;11.15;;
62990;SDS011;49084;48.204;16.202;2022-08-30T04:56:18;14.57;;;11.07;;
62990;SDS011;49084;48.204;16.202;2022-08-30T04:58:49;16.20;;;10.93;;
62990;SDS011;49084;48.204;16.202;2022-08-30T05:01:17;14.70;;;10.50;;
62990;SDS011;49084;48.204;16.202;2022-08-30T05:03:45;12.80;;;9.73;;
62990;SDS011;49084;48.204;16.202;2022-08-30T05:06:11;15.60;;;10.20;;
62990;SDS011;49084;48.204;16.202;2022-08-30T05:08:37;14.10;;;11.68;;
62990;SDS011;49084;48.204;16.202;2022-08-30T05:11:04;14.57;;;10.60;;
62990;SDS011;49084;48.204;16.202;2022-08-30T05:13:31;14.23;;;10.52;;
62990;SDS011;49084;48.204;16.202;2022-08-30T05:15:58;14.63;;;10.90;;
62990;SDS011;49084;48.204;16.202;2022-08-30T05:18:24;16.55;;;10.85;;
62990;SDS011;49084;48.204;16.202;2022-08-30T05:21:01;13.35;;;9.75;;
62990;SDS011;49084;48.204;16.202;2022-08-30T05:23:47;13.63;;;9.63;;
62990;SDS011;49084;48.204;16.202;2022-08-30T05:26:18;15.35;;;9.55;;
62990;SDS011;49084;48.204;16.202;2022-08-30T05:28:46;13.02;;;8.73;;
62990;SDS011;49084;48.204;16.202;2022-08-30T05:33:43;14.43;;;9.63;;
62990;SDS011;49084;48.204;16.202;2022-08-30T05:36:09;18.02;;;9.48;;
62990;SDS011;49084;48.204;16.202;2022-08-30T05:38:36;12.48;;;8.68;;
62990;SDS011;49084;48.204;16.202;2022-08-30T05:41:02;13.13;;;9.18;;
62990;SDS011;49084;48.204;16.202;2022-08-30T05:43:28;10.70;;;8.80;;
62990;SDS011;49084;48.204;16.202;2022-08-30T05:45:58;17.65;;;8.93;;
62990;SDS011;49084;48.204;16.202;2022-08-30T05:48:24;12.18;;;8.10;;
62990;SDS011;49084;48.204;16.202;2022-08-30T05:50:50;18.10;;;7.80;;
62990;SDS011;49084;48.204;16.202;2022-08-30T05:53:24;10.02;;;7.85;;
62990;SDS011;49084;48.204;16.202;2022-08-30T05:55:50;11.57;;;7.05;;
62990;SDS011;49084;48.204;16.202;2022-08-30T05:58:16;10.45;;;7.57;;
62990;SDS011;49084;48.204;16.202;2022-08-30T06:00:42;10.73;;;6.35;;
62990;SDS011;49084;48.204;16.202;2022-08-30T06:03:08;11.52;;;6.38;;
62990;SDS011;49084;48.204;16.202;2022-08-30T06:05:36;9.23;;;5.27;;
62990;SDS011;49084;48.204;16.202;2022-08-30T06:08:02;10.35;;;5.60;;
62990;SDS011;49084;48.204;16.202;2022-08-30T06:10:27;8.98;;;5.28;;
62990;SDS011;49084;48.204;16.202;2022-08-30T06:12:53;8.13;;;5.22;;
62990;SDS011;49084;48.204;16.202;2022-08-30T06:15:19;7.65;;;5.15;;
62990;SDS011;49084;48.204;16.202;2022-08-30T06:17:44;8.00;;;4.93;;
62990;SDS011;49084;48.204;16.202;2022-08-30T06:20:11;10.48;;;4.85;;
62990;SDS011;49084;48.204;16.202;2022-08-30T06:22:37;9.75;;;4.78;;
62990;SDS011;49084;48.204;16.202;2022-08-30T06:25:03;13.43;;;4.55;;
62990;SDS011;49084;48.204;16.202;2022-08-30T06:27:29;8.10;;;4.97;;
62990;SDS011;49084;48.204;16.202;2022-08-30T06:29:55;6.80;;;4.22;;
62990;SDS011;49084;48.204;16.202;2022-08-30T06:32:21;11.25;;;4.80;;
62990;SDS011;49084;48.204;16.202;2022-08-30T06:34:46;6.93;;;4.70;;
62990;SDS011;49084;48.204;16.202;2022-08-30T06:37:12;13.52;;;4.47;;
62990;SDS011;49084;48.204;16.202;2022-08-30T06:39:38;7.00;;;4.45;;
62990;SDS011;49084;48.204;16.202;2022-08-30T06:42:04;9.32;;;5.35;;
62990;SDS011;49084;48.204;16.202;2022-08-30T06:44:30;11.43;;;4.55;;
62990;SDS011;49084;48.204;16.202;2022-08-30T06:46:55;12.30;;;5.03;;
62990;SDS011;49084;48.204;16.202;2022-08-30T06:49:21;9.05;;;4.68;;
62990;SDS011;49084;48.204;16.202;2022-08-30T06:51:46;7.13;;;3.50;;
62990;SDS011;49084;48.204;16.202;2022-08-30T06:54:12;6.22;;;3.83;;
62990;SDS011;49084;48.204;16.202;2022-08-30T06:56:38;15.05;;;4.05;;
62990;SDS011;49084;48.204;16.202;2022-08-30T06:59:04;8.30;;;4.07;;
62990;SDS011;49084;48.204;16.202;2022-08-30T07:01:30;6.57;;;3.60;;
62990;SDS011;49084;48.204;16.202;2022-08-30T07:03:57;6.53;;;3.70;;
62990;SDS011;49084;48.204;16.202;2022-08-30T07:06:25;9.63;;;3.80;;
62990;SDS011;49084;48.204;16.202;2022-08-30T07:08:51;9.52;;;3.88;;
62990;SDS011;49084;48.204;16.202;2022-08-30T07:11:24;8.23;;;3.67;;
62990;SDS011;49084;48.204;16.202;2022-08-30T07:13:51;5.60;;;3.67;;
62990;SDS011;49084;48.204;16.202;2022-08-30T07:16:17;9.02;;;3.83;;
62990;SDS011;49084;48.204;16.202;2022-08-30T07:18:42;10.00;;;3.92;;
62990;SDS011;49084;48.204;16.202;2022-08-30T07:21:28;8.15;;;3.55;;
62990;SDS011;49084;48.204;16.202;2022-08-30T07:24:01;10.32;;;4.10;;
62990;SDS011;49084;48.204;16.202;2022-08-30T07:26:31;9.52;;;3.97;;
62990;SDS011;49084;48.204;16.202;2022-08-30T07:28:59;11.90;;;4.07;;
62990;SDS011;49084;48.204;16.202;2022-08-30T07:31:26;7.47;;;3.95;;
62990;SDS011;49084;48.204;16.202;2022-08-30T07:33:51;8.10;;;3.50;;
62990;SDS011;49084;48.204;16.202;2022-08-30T07:36:18;8.98;;;3.72;;
62990;SDS011;49084;48.204;16.202;2022-08-30T07:38:46;5.90;;;3.80;;
62990;SDS011;49084;48.204;16.202;2022-08-30T07:41:20;9.80;;;4.10;;
62990;SDS011;49084;48.204;16.202;2022-08-30T07:43:50;14.30;;;3.92;;
62990;SDS011;49084;48.204;16.202;2022-08-30T07:46:16;9.60;;;3.70;;
62990;SDS011;49084;48.204;16.202;2022-08-30T07:48:43;5.80;;;3.58;;
62990;SDS011;49084;48.204;16.202;2022-08-30T07:51:13;9.38;;;3.58;;
62990;SDS011;49084;48.204;16.202;2022-08-30T07:53:42;6.95;;;3.50;;
62990;SDS011;49084;48.204;16.202;2022-08-30T07:56:07;8.77;;;4.10;;
62990;SDS011;49084;48.204;16.202;2022-08-30T07:58:33;10.13;;;3.60;;
62990;SDS011;49084;48.204;16.202;2022-08-30T08:01:01;9.45;;;3.90;;
62990;SDS011;49084;48.204;16.202;2022-08-30T08:03:29;8.50;;;3.58;;
62990;SDS011;49084;48.204;16.202;2022-08-30T08:05:55;10.52;;;4.13;;
62990;SDS011;49084;48.204;16.202;2022-08-30T08:08:21;8.48;;;3.70;;
62990;SDS011;49084;48.204;16.202;2022-08-30T08:10:47;8.07;;;3.78;;
62990;SDS011;49084;48.204;16.202;2022-08-30T08:13:13;10.50;;;3.90;;
62990;SDS011;49084;48.204;16.202;2022-08-30T08:15:39;9.40;;;3.85;;
62990;SDS011;49084;48.204;16.202;2022-08-30T08:18:05;8.35;;;3.42;;
62990;SDS011;49084;48.204;16.202;2022-08-30T08:20:31;10.30;;;3.30;;
62990;SDS011;49084;48.204;16.202;2022-08-30T08:22:57;9.90;;;4.22;;
62990;SDS011;49084;48.204;16.202;2022-08-30T08:25:23;8.43;;;3.63;;
62990;SDS011;49084;48.204;16.202;2022-08-30T08:27:49;9.52;;;3.70;;
62990;SDS011;49084;48.204;16.202;2022-08-30T08:30:19;8.68;;;3.97;;
62990;SDS011;49084;48.204;16.202;2022-08-30T08:32:46;7.70;;;3.38;;
62990;SDS011;49084;48.204;16.202;2022-08-30T08:35:13;5.88;;;2.88;;
62990;SDS011;49084;48.204;16.202;2022-08-30T08:37:40;6.50;;;3.13;;
62990;SDS011;49084;48.204;16.202;2022-08-30T08:40:05;6.07;;;3.03;;
62990;SDS011;49084;48.204;16.202;2022-08-30T08:45:28;8.88;;;3.53;;
62990;SDS011;49084;48.204;16.202;2022-08-30T08:48:00;5.28;;;2.85;;
62990;SDS011;49084;48.204;16.202;2022-08-30T08:50:30;5.28;;;2.95;;
62990;SDS011;49084;48.204;16.202;2022-08-30T08:53:11;4.80;;;2.42;;
62990;SDS011;49084;48.204;16.202;2022-08-30T08:55:59;4.47;;;2.70;;
62990;SDS011;49084;48.204;16.202;2022-08-30T08:58:28;5.97;;;3.00;;
62990;SDS011;49084;48.204;16.202;2022-08-30T09:00:56;4.78;;;3.35;;
62990;SDS011;49084;48.204;16.202;2022-08-30T09:03:24;3.03;;;2.60;;
62990;SDS011;49084;48.204;16.202;2022-08-30T09:05:52;3.88;;;2.50;;
62990;SDS011;49084;48.204;16.202;2022-08-30T09:08:19;3.03;;;2.45;;
62990;SDS011;49084;48.204;16.202;2022-08-30T09:13:23;3.53;;;2.05;;
62990;SDS011;49084;48.204;16.202;2022-08-30T09:15:50;5.57;;;2.70;;
62990;SDS011;49084;48.204;16.202;2022-08-30T09:18:18;2.65;;;1.70;;
62990;SDS011;49084;48.204;16.202;2022-08-30T09:20:44;6.25;;;2.17;;
62990;SDS011;49084;48.204;16.202;2022-08-30T09:28:31;3.58;;;1.98;;
62990;SDS011;49084;48.204;16.202;2022-08-30T09:31:18;4.55;;;2.03;;
62990;SDS011;49084;48.204;16.202;2022-08-30T09:36:46;4.68;;;2.30;;
62990;SDS011;49084;48.204;16.202;2022-08-30T09:41:45;5.47;;;2.20;;
62990;SDS011;49084;48.204;16.202;2022-08-30T09:52:12;4.20;;;1.70;;
62990;SDS011;49084;48.204;16.202;2022-08-30T09:54:52;3.35;;;2.00;;
62990;SDS011;49084;48.204;16.202;2022-08-30T09:57:29;3.10;;;1.60;;
62990;SDS011;49084;48.204;16.202;2022-08-30T10:05:12;3.65;;;1.92;;
62990;SDS011;49084;48.204;16.202;2022-08-30T10:10:32;4.28;;;2.10;;
62990;SDS011;49084;48.204;16.202;2022-08-30T10:16:47;4.45;;;1.88;;
62990;SDS011;49084;48.204;16.202;2022-08-30T10:22:34;6.65;;;2.20;;
62990;SDS011;49084;48.204;16.202;2022-08-30T10:25:15;4.18;;;2.38;;
62990;SDS011;49084;48.204;16.202;2022-08-30T10:27:55;4.63;;;1.92;;
62990;SDS011;49084;48.204;16.202;2022-08-30T10:30:27;4.47;;;2.28;;
62990;SDS011;49084;48.204;16.202;2022-08-30T10:33:02;4.90;;;1.88;;
62990;SDS011;49084;48.204;16.202;2022-08-30T10:35:39;4.38;;;2.40;;
62990;SDS011;49084;48.204;16.202;2022-08-30T10:40:50;4.20;;;2.08;;
62990;SDS011;49084;48.204;16.202;2022-08-30T10:46:43;6.55;;;2.67;;
62990;SDS011;49084;48.204;16.202;2022-08-30T10:49:04;4.47;;;2.20;;
62990;SDS011;49084;48.204;16.202;2022-08-30T10:54:25;4.05;;;2.10;;
62990;SDS011;49084;48.204;16.202;2022-08-30T10:57:00;3.60;;;2.10;;
62990;SDS011;49084;48.204;16.202;2022-08-30T10:59:26;5.50;;;2.25;;
62990;SDS011;49084;48.204;16.202;2022-08-30T11:07:51;4.07;;;2.17;;
62990;SDS011;49084;48.204;16.202;2022-08-30T11:13:26;3.95;;;2.25;;
62990;SDS011;49084;48.204;16.202;2022-08-30T11:16:00;3.47;;;2.13;;
62990;SDS011;49084;48.204;16.202;2022-08-30T11:18:27;2.63;;;1.90;;
62990;SDS011;49084;48.204;16.202;2022-08-30T11:21:16;3.15;;;2.53;;
62990;SDS011;49084;48.204;16.202;2022-08-30T11:24:31;4.03;;;2.50;;
62990;SDS011;49084;48.204;16.202;2022-08-30T11:31:54;4.18;;;2.00;;
62990;SDS011;49084;48.204;16.202;2022-08-30T11:37:09;6.05;;;2.67;;
62990;SDS011;49084;48.204;16.202;2022-08-30T11:39:54;3.45;;;2.30;;
62990;SDS011;49084;48.204;16.202;2022-08-30T11:42:50;2.70;;;1.95;;
62990;SDS011;49084;48.204;16.202;2022-08-30T11:50:24;3.25;;;2.20;;
62990;SDS011;49084;48.204;16.202;2022-08-30T11:56:03;2.88;;;1.77;;
62990;SDS011;49084;48.204;16.202;2022-08-30T12:06:51;4.40;;;2.15;;
62990;SDS011;49084;48.204;16.202;2022-08-30T12:14:34;4.40;;;2.45;;
62990;SDS011;49084;48.204;16.202;2022-08-30T12:17:01;2.60;;;1.92;;
62990;SDS011;49084;48.204;16.202;2022-08-30T12:19:55;2.60;;;2.20;;
62990;SDS011;49084;48.204;16.202;2022-08-30T12:22:21;6.22;;;2.10;;
62990;SDS011;49084;48.204;16.202;2022-08-30T12:24:48;3.78;;;2.20;;
62990;SDS011;49084;48.204;16.202;2022-08-30T12:27:34;3.30;;;2.10;;
62990;SDS011;49084;48.204;16.202;2022-08-30T12:30:01;4.50;;;2.03;;
62990;SDS011;49084;48.204;16.202;2022-08-30T12:32:30;3.95;;;2.38;;
62990;SDS011;49084;48.204;16.202;2022-08-30T12:35:02;3.90;;;1.90;;
62990;SDS011;49084;48.204;16.202;2022-08-30T12:37:37;2.47;;;1.67;;
62990;SDS011;49084;48.204;16.202;2022-08-30T12:42:32;2.75;;;2.03;;
62990;SDS011;49084;48.204;16.202;2022-08-30T12:45:05;4.38;;;1.90;;
62990;SDS011;49084;48.204;16.202;2022-08-30T12:47:41;5.07;;;2.15;;
62990;SDS011;49084;48.204;16.202;2022-08-30T12:50:19;2.70;;;1.95;;
62990;SDS011;49084;48.204;16.202;2022-08-30T12:52:58;4.32;;;1.98;;
62990;SDS011;49084;48.204;16.202;2022-08-30T12:55:49;2.97;;;1.90;;
62990;SDS011;49084;48.204;16.202;2022-08-30T13:03:39;2.47;;;1.65;;
62990;SDS011;49084;48.204;16.202;2022-08-30T13:06:06;3.00;;;2.22;;
62990;SDS011;49084;48.204;16.202;2022-08-30T13:08:36;4.32;;;2.15;;
62990;SDS011;49084;48.204;16.202;2022-08-30T13:13:53;3.55;;;1.77;;
62990;SDS011;49084;48.204;16.202;2022-08-30T13:16:39;3.65;;;1.85;;
62990;SDS011;49084;48.204;16.202;2022-08-30T13:21:52;3.85;;;2.05;;
62990;SDS011;49084;48.204;16.202;2022-08-30T13:24:22;2.65;;;2.00;;
62990;SDS011;49084;48.204;16.202;2022-08-30T13:26:48;2.80;;;1.87;;
62990;SDS011;49084;48.204;16.202;2022-08-30T13:29:21;5.05;;;2.13;;
62990;SDS011;49084;48.204;16.202;2022-08-30T13:31:50;5.22;;;2.40;;
62990;SDS011;49084;48.204;16.202;2022-08-30T13:34:15;5.32;;;2.20;;
62990;SDS011;49084;48.204;16.202;2022-08-30T13:36:51;2.88;;;1.85;;
62990;SDS011;49084;48.204;16.202;2022-08-30T13:39:21;5.45;;;2.17;;
62990;SDS011;49084;48.204;16.202;2022-08-30T13:41:47;3.83;;;1.90;;
62990;SDS011;49084;48.204;16.202;2022-08-30T13:44:14;8.40;;;2.25;;
62990;SDS011;49084;48.204;16.202;2022-08-30T13:46:40;3.22;;;2.00;;
62990;SDS011;49084;48.204;16.202;2022-08-30T13:49:09;3.83;;;2.03;;
62990;SDS011;49084;48.204;16.202;2022-08-30T13:51:39;4.25;;;2.08;;
62990;SDS011;49084;48.204;16.202;2022-08-30T13:54:05;3.03;;;2.00;;
62990;SDS011;49084;48.204;16.202;2022-08-30T13:56:31;4.63;;;1.80;;
62990;SDS011;49084;48.204;16.202;2022-08-30T13:59:00;4.18;;;2.15;;
62990;SDS011;49084;48.204;16.202;2022-08-30T14:01:26;1.85;;;1.70;;
62990;SDS011;49084;48.204;16.202;2022-08-30T14:03:53;3.38;;;1.70;;
62990;SDS011;49084;48.204;16.202;2022-08-30T14:06:19;3.47;;;1.85;;
62990;SDS011;49084;48.204;16.202;2022-08-30T14:08:45;2.15;;;1.77;;
62990;SDS011;49084;48.204;16.202;2022-08-30T14:11:11;3.75;;;2.08;;
62990;SDS011;49084;48.204;16.202;2022-08-30T14:13:40;2.50;;;1.83;;
62990;SDS011;49084;48.204;16.202;2022-08-30T14:16:07;2.67;;;1.98;;
62990;SDS011;49084;48.204;16.202;2022-08-30T14:18:33;3.30;;;2.47;;
62990;SDS011;49084;48.204;16.202;2022-08-30T14:20:59;2.72;;;2.20;;
62990;SDS011;49084;48.204;16.202;2022-08-30T14:23:25;3.28;;;2.10;;
62990;SDS011;49084;48.204;16.202;2022-08-30T14:25:51;3.85;;;1.83;;
62990;SDS011;49084;48.204;16.202;2022-08-30T14:28:17;1.98;;;1.77;;
62990;SDS011;49084;48.204;16.202;2022-08-30T14:30:43;3.97;;;2.10;;
62990;SDS011;49084;48.204;16.202;2022-08-30T14:33:09;4.13;;;2.30;;
62990;SDS011;49084;48.204;16.202;2022-08-30T14:35:36;2.25;;;2.05;;
62990;SDS011;49084;48.204;16.202;2022-08-30T14:38:02;3.28;;;2.10;;
62990;SDS011;49084;48.204;16.202;2022-08-30T14:40:28;3.63;;;2.20;;
62990;SDS011;49084;48.204;16.202;2022-08-30T14:42:54;4.22;;;1.95;;
62990;SDS011;49084;48.204;16.202;2022-08-30T14:45:20;5.53;;;2.17;;
62990;SDS011;49084;48.204;16.202;2022-08-30T14:47:46;2.88;;;2.15;;
62990;SDS011;49084;48.204;16.202;2022-08-30T14:50:12;3.75;;;2.30;;
62990;SDS011;49084;48.204;16.202;2022-08-30T14:52:38;2.17;;;1.85;;
62990;SDS011;49084;48.204;16.202;2022-08-30T14:55:05;4.20;;;2.78;;
62990;SDS011;49084;48.204;16.202;2022-08-30T14:57:32;6.45;;;2.22;;
62990;SDS011;49084;48.204;16.202;2022-08-30T14:59:58;5.43;;;2.15;;
62990;SDS011;49084;48.204;16.202;2022-08-30T15:02:24;5.03;;;2.22;;
62990;SDS011;49084;48.204;16.202;2022-08-30T15:04:49;3.97;;;2.25;;
62990;SDS011;49084;48.204;16.202;2022-08-30T15:07:16;4.03;;;2.25;;
62990;SDS011;49084;48.204;16.202;2022-08-30T15:09:42;1.65;;;1.55;;
62990;SDS011;49084;48.204;16.202;2022-08-30T15:12:08;3.92;;;1.92;;
62990;SDS011;49084;48.204;16.202;2022-08-30T15:14:34;3.83;;;2.15;;
62990;SDS011;49084;48.204;16.202;2022-08-30T15:17:00;4.35;;;2.03;;
62990;SDS011;49084;48.204;16.202;2022-08-30T15:19:27;4.43;;;2.33;;
62990;SDS011;49084;48.204;16.202;2022-08-30T15:21:53;5.00;;;2.17;;
62990;SDS011;49084;48.204;16.202;2022-08-30T15:24:22;3.83;;;2.25;;
62990;SDS011;49084;48.204;16.202;2022-08-30T15:26:48;4.38;;;2.28;;
62990;SDS011;49084;48.204;16.202;2022-08-30T15:29:15;3.53;;;2.20;;
62990;SDS011;49084;48.204;16.202;2022-08-30T15:31:43;4.22;;;2.25;;
62990;SDS011;49084;48.204;16.202;2022-08-30T15:34:11;5.25;;;2.28;;
62990;SDS011;49084;48.204;16.202;2022-08-30T15:36:39;5.38;;;2.08;;
62990;SDS011;49084;48.204;16.202;2022-08-30T15:39:05;3.53;;;2.47;;
62990;SDS011;49084;48.204;16.202;2022-08-30T15:41:31;3.47;;;2.00;;
62990;SDS011;49084;48.204;16.202;2022-08-30T15:43:59;4.35;;;2.20;;
62990;SDS011;49084;48.204;16.202;2022-08-30T15:49:15;2.60;;;2.03;;
62990;SDS011;49084;48.204;16.202;2022-08-30T15:51:43;3.08;;;2.00;;
62990;SDS011;49084;48.204;16.202;2022-08-30T15:54:10;3.37;;;1.97;;
62990;SDS011;49084;48.204;16.202;2022-08-30T15:56:40;3.70;;;2.33;;
62990;SDS011;49084;48.204;16.202;2022-08-30T15:59:06;4.05;;;1.80;;
62990;SDS011;49084;48.204;16.202;2022-08-30T16:01:32;5.28;;;1.88;;
62990;SDS011;49084;48.204;16.202;2022-08-30T16:03:58;4.18;;;2.00;;
62990;SDS011;49084;48.204;16.202;2022-08-30T16:06:27;3.10;;;2.08;;
62990;SDS011;49084;48.204;16.202;2022-08-30T16:08:54;3.33;;;2.28;;
62990;SDS011;49084;48.204;16.202;2022-08-30T16:11:21;2.42;;;2.20;;
62990;SDS011;49084;48.204;16.202;2022-08-30T16:13:48;4.45;;;1.95;;
62990;SDS011;49084;48.204;16.202;2022-08-30T16:16:15;4.10;;;2.08;;
62990;SDS011;49084;48.204;16.202;2022-08-30T16:18:41;4.53;;;2.20;;
62990;SDS011;49084;48.204;16.202;2022-08-30T16:21:11;3.92;;;2.03;;